Time;durP1;ratioP1;P1;durP2;ratioP2;P2;SDS_P1;SDS_P2;PMS_P1;PMS_P2;Temp;Humidity;BMP_temperature;BMP_pressure;BME280_temperature;BME280_humidity;BME280_pressure;Samples;Min_cycle;Max_cycle;Signal;HPM_P1;HPM_P2
2021/04/13 00:00:20;;;;;;;4.25;1.92;;;2.70;93.70;;;;;;5030027;28;20025;-80
2021/04/13 00:02:53;;;;;;;4.30;2.03;;;2.70;93.70;;;;;;5031681;28;20439;-80
2021/04/13 00:05:36;;;;;;;2.97;2.00;;;2.70;93.90;;;;;;5048215;28;20516;-80
2021/04/13 00:08:14;;;;;;;3.42;1.70;;;2.70;94.00;;;;;;5034589;28;20029;-80
2021/04/13 00:10:50;;;;;;;2.58;1.60;;;2.70;94.00;;;;;;5034292;28;20366;-80
2021/04/13 00:13:17;;;;;;;4.35;1.67;;;2.80;94.00;;;;;;5046863;28;20370;-80
2021/04/13 00:15:54;;;;;;;4.57;2.17;;;2.80;93.90;;;;;;5032870;28;20022;-80
2021/04/13 00:18:25;;;;;;;5.32;2.30;;;2.80;93.80;;;;;;5019879;28;20022;-81
2021/04/13 00:21:00;;;;;;;4.82;2.15;;;2.70;93.90;;;;;;5032783;28;20481;-80
2021/04/13 00:23:26;;;;;;;4.70;2.42;;;2.70;94.10;;;;;;5030336;28;20041;-80
2021/04/13 00:25:55;;;;;;;3.80;2.60;;;2.60;94.30;;;;;;5047222;28;20469;-80
2021/04/13 00:28:28;;;;;;;3.07;1.70;;;2.60;94.40;;;;;;5032658;28;20037;-80
2021/04/13 00:31:03;;;;;;;3.92;2.30;;;2.60;94.50;;;;;;5015681;28;20049;-80
2021/04/13 00:33:31;;;;;;;5.57;2.08;;;2.70;94.40;;;;;;5031852;28;20029;-80
2021/04/13 00:36:13;;;;;;;3.75;1.75;;;2.70;94.40;;;;;;5048492;28;20037;-80
2021/04/13 00:38:41;;;;;;;2.53;1.55;;;2.80;94.30;;;;;;5032049;28;20052;-80
2021/04/13 00:41:13;;;;;;;1.95;1.50;;;2.80;94.30;;;;;;5021273;28;20060;-80
2021/04/13 00:43:55;;;;;;;2.88;1.45;;;2.80;94.20;;;;;;5033690;28;20116;-80
2021/04/13 00:46:26;;;;;;;2.45;1.45;;;2.80;94.10;;;;;;5030066;28;20026;-81
2021/04/13 00:48:54;;;;;;;2.17;0.98;;;2.80;94.10;;;;;;5032166;28;20532;-80
2021/04/13 00:51:34;;;;;;;2.83;1.42;;;2.80;94.10;;;;;;5033027;28;20061;-80
2021/04/13 00:54:03;;;;;;;4.10;1.55;;;2.80;94.10;;;;;;5018936;28;20026;-81
2021/04/13 00:56:31;;;;;;;2.13;1.25;;;2.80;94.20;;;;;;5045653;28;20028;-80
2021/04/13 00:58:59;;;;;;;2.90;1.63;;;2.80;94.30;;;;;;5046138;28;20049;-80
2021/04/13 01:01:28;;;;;;;4.05;1.60;;;2.90;94.40;;;;;;5031944;28;20025;-80
2021/04/13 01:04:15;;;;;;;2.03;1.23;;;2.90;94.30;;;;;;5033256;28;20017;-80
2021/04/13 01:06:40;;;;;;;3.58;1.70;;;2.90;94.30;;;;;;5031885;28;20033;-80
2021/04/13 01:09:19;;;;;;;3.85;1.50;;;2.80;94.40;;;;;;5033012;28;20480;-80
2021/04/13 01:12:01;;;;;;;4.65;1.38;;;2.80;94.40;;;;;;5033071;28;20516;-80
2021/04/13 01:14:29;;;;;;;2.63;1.30;;;2.70;94.50;;;;;;5028594;28;20029;-80
2021/04/13 01:17:02;;;;;;;4.65;2.05;;;2.70;94.70;;;;;;5043393;28;20033;-80
2021/04/13 01:19:31;;;;;;;4.47;2.40;;;2.60;94.80;;;;;;5031652;28;20022;-80
2021/04/13 01:22:11;;;;;;;4.03;2.30;;;2.60;95.00;;;;;;5047493;28;20092;-80
2021/04/13 01:24:45;;;;;;;5.53;1.85;;;2.60;95.10;;;;;;5032300;28;20107;-80
2021/04/13 01:27:12;;;;;;;4.43;1.88;;;2.60;95.20;;;;;;5032810;28;20017;-80
2021/04/13 01:29:39;;;;;;;7.10;2.25;;;2.60;95.40;;;;;;5029799;28;20423;-80
2021/04/13 01:32:07;;;;;;;2.58;1.60;;;2.60;95.40;;;;;;5031335;28;20499;-80
2021/04/13 01:35:08;;;;;;;3.08;1.50;;;2.60;95.40;;;;;;5031469;28;20496;-80
2021/04/13 01:43:06;;;;;;;3.85;1.70;;;2.50;95.60;;;;;;5031993;28;20468;-80
2021/04/13 01:45:32;;;;;;;3.80;1.40;;;2.40;95.70;;;;;;5030399;28;20049;-80
2021/04/13 01:48:00;;;;;;;3.63;1.95;;;2.40;95.80;;;;;;5031127;28;20059;-80
2021/04/13 01:50:31;;;;;;;3.20;1.58;;;2.50;95.90;;;;;;5032206;28;20033;-81
2021/04/13 01:53:07;;;;;;;3.40;1.60;;;2.50;96.00;;;;;;5046890;28;20389;-80
2021/04/13 01:55:35;;;;;;;5.63;1.92;;;2.50;96.10;;;;;;5032284;28;20024;-80
2021/04/13 01:58:24;;;;;;;3.42;2.20;;;2.40;96.40;;;;;;5032237;28;20033;-80
2021/04/13 02:01:18;;;;;;;4.43;1.63;;;2.40;96.20;;;;;;5032127;28;20533;-80
2021/04/13 02:04:04;;;;;;;3.85;1.60;;;2.50;96.20;;;;;;5045834;28;20037;-80
2021/04/13 02:06:38;;;;;;;2.80;1.25;;;2.50;96.20;;;;;;5030411;28;20029;-80
2021/04/13 02:09:27;;;;;;;3.90;1.58;;;2.40;96.20;;;;;;5031699;28;20025;-80
2021/04/13 02:11:57;;;;;;;2.53;1.30;;;2.40;96.20;;;;;;5029525;28;20080;-80
2021/04/13 02:14:28;;;;;;;2.38;1.20;;;2.30;96.20;;;;;;5047224;28;20025;-80
2021/04/13 02:16:57;;;;;;;3.40;1.40;;;2.30;96.30;;;;;;5025771;28;20048;-80
2021/04/13 02:19:25;;;;;;;2.90;1.50;;;2.30;96.30;;;;;;5028728;28;20397;-80
2021/04/13 02:21:55;;;;;;;2.65;1.85;;;2.30;96.40;;;;;;5029289;28;20461;-80
2021/04/13 02:24:29;;;;;;;3.70;1.63;;;2.30;96.40;;;;;;5031750;28;20429;-80
2021/04/13 02:26:57;;;;;;;4.47;1.90;;;2.30;96.50;;;;;;5031624;28;20021;-80
2021/04/13 02:29:32;;;;;;;5.25;1.88;;;2.20;96.70;;;;;;5045275;28;20056;-80
2021/04/13 02:32:01;;;;;;;6.65;2.25;;;2.20;97.10;;;;;;5030310;28;20021;-80
2021/04/13 02:34:35;;;;;;;3.83;2.10;;;2.20;97.00;;;;;;5040831;28;20036;-80
2021/04/13 02:37:08;;;;;;;3.45;1.75;;;2.10;97.10;;;;;;5020719;28;20030;-80
2021/04/13 02:39:35;;;;;;;5.53;3.50;;;2.00;97.20;;;;;;5016702;28;20056;-80
2021/04/13 02:42:07;;;;;;;5.75;1.95;;;2.00;97.40;;;;;;5031397;28;20017;-80
2021/04/13 02:44:33;;;;;;;3.42;1.50;;;2.00;97.50;;;;;;5028946;28;20566;-80
2021/04/13 02:47:04;;;;;;;4.68;1.83;;;1.90;97.60;;;;;;5031387;28;20033;-80
2021/04/13 02:49:31;;;;;;;2.70;1.55;;;1.90;97.70;;;;;;5027359;28;20026;-80
2021/04/13 02:52:03;;;;;;;2.33;1.58;;;1.90;97.80;;;;;;5031249;28;20104;-80
2021/04/13 02:54:39;;;;;;;3.72;1.30;;;2.00;97.80;;;;;;5030838;28;20036;-80
2021/04/13 02:57:13;;;;;;;2.72;1.35;;;2.00;97.70;;;;;;5030985;28;20104;-80
2021/04/13 02:59:39;;;;;;;2.58;1.42;;;2.00;97.60;;;;;;5029613;28;20017;-80
2021/04/13 03:02:28;;;;;;;2.10;1.25;;;2.00;97.60;;;;;;5030074;28;20032;-80
2021/04/13 03:04:54;;;;;;;3.17;1.45;;;2.00;97.60;;;;;;5040518;28;20018;-80
2021/04/13 03:07:26;;;;;;;3.50;1.63;;;2.00;97.60;;;;;;5031101;28;20032;-80
2021/04/13 03:10:00;;;;;;;2.20;1.10;;;2.00;97.50;;;;;;5024573;28;20022;-80
2021/04/13 03:12:29;;;;;;;3.60;1.23;;;2.00;97.50;;;;;;5031128;28;20690;-80
2021/04/13 03:14:56;;;;;;;1.67;0.82;;;2.00;97.60;;;;;;5013940;28;20033;-80
2021/04/13 03:17:26;;;;;;;4.53;1.02;;;2.00;97.70;;;;;;5029803;28;20022;-80
2021/04/13 03:20:06;;;;;;;4.78;1.38;;;2.00;97.70;;;;;;5041802;28;20397;-80
2021/04/13 03:22:33;;;;;;;2.58;0.88;;;1.90;97.70;;;;;;5030854;28;20025;-80
2021/04/13 03:25:00;;;;;;;1.88;1.13;;;1.80;98.00;;;;;;5029491;28;20021;-80
2021/04/13 03:27:29;;;;;;;3.40;1.00;;;1.80;98.00;;;;;;5030957;28;20389;-80
2021/04/13 03:30:07;;;;;;;1.58;1.10;;;1.80;98.10;;;;;;5029591;28;20033;-80
2021/04/13 03:32:42;;;;;;;3.88;1.40;;;1.80;98.30;;;;;;5028438;28;20096;-80
2021/04/13 03:35:08;;;;;;;2.25;1.20;;;1.80;98.10;;;;;;5016933;28;20061;-80
2021/04/13 03:37:40;;;;;;;1.98;1.33;;;1.80;98.10;;;;;;5030945;28;20628;-80
2021/04/13 03:40:10;;;;;;;3.30;1.52;;;1.80;98.20;;;;;;5030608;28;20029;-80
2021/04/13 03:42:36;;;;;;;2.55;1.23;;;1.80;98.30;;;;;;5031369;28;20029;-80
2021/04/13 03:45:06;;;;;;;4.25;1.55;;;1.80;98.30;;;;;;5043981;28;20036;-80
2021/04/13 03:47:34;;;;;;;4.63;1.70;;;1.70;98.40;;;;;;5030895;28;20389;-80
2021/04/13 03:50:08;;;;;;;2.75;1.40;;;1.70;98.40;;;;;;5030834;28;20025;-80
2021/04/13 03:52:34;;;;;;;3.80;1.30;;;1.70;98.50;;;;;;5028196;28;20021;-80
2021/04/13 03:55:19;;;;;;;2.72;1.30;;;1.70;98.50;;;;;;5029359;28;20014;-80
2021/04/13 03:57:45;;;;;;;3.38;1.20;;;1.70;98.40;;;;;;5043839;28;20045;-80
2021/04/13 04:00:15;;;;;;;2.35;1.40;;;1.70;98.60;;;;;;5043418;28;20018;-80
2021/04/13 04:02:41;;;;;;;2.80;1.48;;;1.70;98.80;;;;;;5043091;28;20025;-80
2021/04/13 04:05:14;;;;;;;4.63;1.58;;;1.60;98.90;;;;;;5044211;28;20344;-80
2021/04/13 04:07:48;;;;;;;4.38;1.70;;;1.70;99.00;;;;;;5026300;28;20108;-80
2021/04/13 04:10:35;;;;;;;4.70;1.75;;;1.70;98.90;;;;;;5020078;28;20072;-80
2021/04/13 04:13:07;;;;;;;5.35;1.90;;;1.70;99.00;;;;;;5032458;28;20020;-80
2021/04/13 04:15:38;;;;;;;2.83;1.73;;;1.60;99.00;;;;;;5032739;28;20021;-81
2021/04/13 04:18:11;;;;;;;2.00;1.45;;;1.60;99.10;;;;;;5032837;28;20404;-80
2021/04/13 04:20:37;;;;;;;3.08;1.60;;;1.60;99.10;;;;;;5032749;28;20048;-80
2021/04/13 04:23:03;;;;;;;2.28;1.70;;;1.60;99.20;;;;;;5032756;28;20053;-80
2021/04/13 04:25:29;;;;;;;3.45;1.55;;;1.60;99.10;;;;;;5032363;28;20032;-80
2021/04/13 04:27:57;;;;;;;2.38;1.63;;;1.60;99.20;;;;;;5034008;28;20273;-80
2021/04/13 04:30:34;;;;;;;3.78;1.90;;;1.60;99.20;;;;;;5033905;28;20516;-80
2021/04/13 04:33:02;;;;;;;2.88;1.90;;;1.60;99.30;;;;;;5047748;28;20036;-80
2021/04/13 04:35:40;;;;;;;3.72;2.08;;;1.60;99.30;;;;;;5033423;28;20030;-80
2021/04/13 04:38:27;;;;;;;5.57;2.33;;;1.60;99.40;;;;;;5033791;28;20567;-80
2021/04/13 04:40:57;;;;;;;3.50;2.53;;;1.60;99.50;;;;;;5030790;28;20049;-80
2021/04/13 04:43:43;;;;;;;3.85;2.63;;;1.60;99.60;;;;;;5046211;28;20048;-80
2021/04/13 04:46:09;;;;;;;4.57;2.80;;;1.60;99.60;;;;;;5031854;28;20447;-80
2021/04/13 04:48:37;;;;;;;5.85;3.85;;;1.60;99.70;;;;;;5047108;28;20022;-80
2021/04/13 04:51:08;;;;;;;8.35;5.00;;;1.60;99.70;;;;;;5031173;28;20026;-80
2021/04/13 04:53:35;;;;;;;10.18;6.07;;;1.60;99.90;;;;;;5032254;28;20067;-80
2021/04/13 04:56:04;;;;;;;10.45;6.88;;;1.50;99.90;;;;;;5031240;28;20499;-80
2021/04/13 04:58:30;;;;;;;10.98;6.53;;;1.50;99.90;;;;;;5032065;28;20044;-80
2021/04/13 05:00:56;;;;;;;8.57;4.85;;;1.40;99.90;;;;;;5045898;28;20381;-80
2021/04/13 05:03:24;;;;;;;12.18;7.15;;;1.50;99.90;;;;;;5033200;28;20436;-80
2021/04/13 05:05:50;;;;;;;10.75;6.35;;;1.50;99.90;;;;;;5046724;28;20110;-80
2021/04/13 05:08:17;;;;;;;10.02;6.78;;;1.50;99.90;;;;;;5033352;28;20523;-80
2021/04/13 05:10:42;;;;;;;14.80;7.57;;;1.50;99.90;;;;;;5032928;28;20025;-80
2021/04/13 05:13:08;;;;;;;13.27;7.00;;;1.50;99.90;;;;;;5047389;28;20018;-80
2021/04/13 05:15:34;;;;;;;7.97;5.03;;;1.50;99.90;;;;;;5032966;28;20065;-80
2021/04/13 05:17:59;;;;;;;7.07;4.70;;;1.50;99.90;;;;;;5031428;28;20057;-80
2021/04/13 05:20:25;;;;;;;7.95;4.45;;;1.50;99.90;;;;;;5031628;28;20110;-80
2021/04/13 05:22:50;;;;;;;5.28;3.35;;;1.50;99.90;;;;;;5032778;28;20099;-80
2021/04/13 05:25:17;;;;;;;6.15;3.83;;;1.60;99.90;;;;;;5032716;28;20487;-80
2021/04/13 05:27:42;;;;;;;6.82;3.70;;;1.60;99.90;;;;;;5032808;28;20017;-80
2021/04/13 05:30:10;;;;;;;4.97;3.58;;;1.60;99.90;;;;;;5019565;28;20358;-80
2021/04/13 05:32:36;;;;;;;6.05;4.13;;;1.60;99.90;;;;;;5021995;28;20034;-80
2021/04/13 05:35:02;;;;;;;5.60;3.20;;;1.70;99.90;;;;;;5032537;28;20027;-80
2021/04/13 05:37:29;;;;;;;7.20;3.70;;;1.70;99.90;;;;;;5031412;28;20026;-80
2021/04/13 05:39:56;;;;;;;7.00;3.50;;;1.70;99.90;;;;;;5047475;28;20032;-80
2021/04/13 05:42:30;;;;;;;6.43;4.38;;;1.70;99.90;;;;;;5031167;28;20029;-80
2021/04/13 05:44:56;;;;;;;7.05;4.70;;;1.80;99.90;;;;;;5045602;28;20017;-80
2021/04/13 05:47:24;;;;;;;9.20;6.07;;;1.70;99.90;;;;;;5029414;28;20104;-80
2021/04/13 05:49:49;;;;;;;8.70;5.32;;;1.80;99.90;;;;;;5032066;28;20030;-82
2021/04/13 05:52:15;;;;;;;10.43;6.43;;;1.80;99.90;;;;;;5029837;28;20041;-81
2021/04/13 05:54:40;;;;;;;11.93;5.45;;;1.80;99.90;;;;;;5031752;28;20022;-80
2021/04/13 05:57:09;;;;;;;5.50;3.78;;;1.90;99.90;;;;;;5032931;28;20025;-80
2021/04/13 05:59:34;;;;;;;7.70;4.95;;;1.80;99.90;;;;;;5027247;28;20029;-80
2021/04/13 06:02:03;;;;;;;8.77;6.68;;;1.90;99.90;;;;;;5031393;28;20390;-80
2021/04/13 06:04:28;;;;;;;12.30;7.43;;;1.90;99.90;;;;;;5022733;28;20025;-81
2021/04/13 06:06:54;;;;;;;11.30;7.43;;;1.90;99.90;;;;;;5033301;28;20062;-81
2021/04/13 06:09:20;;;;;;;11.15;7.60;;;1.90;99.90;;;;;;5033913;28;20029;-80
2021/04/13 06:11:47;;;;;;;10.75;6.50;;;2.00;99.90;;;;;;5033925;28;20029;-81
2021/04/13 06:14:14;;;;;;;12.52;6.65;;;2.00;99.90;;;;;;5033704;28;20495;-81
2021/04/13 06:16:42;;;;;;;10.90;7.10;;;2.00;99.90;;;;;;5032124;28;20052;-81
2021/04/13 06:19:08;;;;;;;11.55;6.95;;;2.00;99.90;;;;;;5032527;28;20120;-81
2021/04/13 06:21:34;;;;;;;10.60;6.28;;;2.10;99.90;;;;;;5033596;28;20090;-81
2021/04/13 06:24:00;;;;;;;8.82;6.07;;;2.10;99.90;;;;;;5032362;28;20056;-81
2021/04/13 06:26:25;;;;;;;12.98;6.47;;;2.10;99.90;;;;;;5033587;28;20068;-81
2021/04/13 06:28:51;;;;;;;10.88;6.93;;;2.20;99.90;;;;;;5032151;28;20029;-81
2021/04/13 06:31:17;;;;;;;10.50;6.35;;;2.20;99.90;;;;;;5030979;28;20037;-82
2021/04/13 06:33:42;;;;;;;10.68;6.45;;;2.20;99.90;;;;;;5029006;28;20497;-82
2021/04/13 06:36:08;;;;;;;11.23;7.28;;;2.30;99.90;;;;;;5030899;28;20079;-81
2021/04/13 06:38:38;;;;;;;13.73;7.05;;;2.30;99.90;;;;;;5033449;28;20045;-81
2021/04/13 06:41:37;;;;;;;11.70;5.80;;;2.40;99.90;;;;;;5033266;28;20024;-81
2021/04/13 06:44:22;;;;;;;11.25;6.53;;;2.40;99.90;;;;;;5032492;28;20094;-81
2021/04/13 06:46:51;;;;;;;10.35;6.03;;;2.50;99.90;;;;;;5031479;28;20040;-81
2021/04/13 06:49:35;;;;;;;10.52;6.25;;;2.50;99.90;;;;;;5032095;28;20076;-80
2021/04/13 06:52:30;;;;;;;12.48;6.80;;;2.60;99.90;;;;;;5032945;28;20389;-80
2021/04/13 06:55:36;;;;;;;10.15;6.90;;;2.70;99.90;;;;;;5025626;28;20025;-81
2021/04/13 06:58:09;;;;;;;8.23;5.88;;;2.80;99.90;;;;;;5031716;28;20072;-82
2021/04/13 07:00:57;;;;;;;11.85;6.28;;;2.80;99.90;;;;;;5031794;28;20025;-80
2021/04/13 07:03:53;;;;;;;11.27;5.70;;;2.90;99.90;;;;;;5033054;28;20467;-80
2021/04/13 07:06:38;;;;;;;8.88;5.18;;;3.00;99.90;;;;;;5026617;28;20072;-81
2021/04/13 07:09:24;;;;;;;11.05;5.63;;;3.10;99.90;;;;;;5030955;28;20397;-81
2021/04/13 07:12:01;;;;;;;11.18;4.32;;;3.20;99.90;;;;;;5030246;28;20120;-81
2021/04/13 07:14:52;;;;;;;11.02;5.07;;;3.30;99.90;;;;;;5025658;28;20460;-81
2021/04/13 07:17:40;;;;;;;11.15;4.25;;;3.40;99.90;;;;;;5020767;28;20029;-81
2021/04/13 07:20:20;;;;;;;10.10;4.38;;;3.50;99.90;;;;;;5029915;28;20036;-81
2021/04/13 07:22:55;;;;;;;9.57;4.05;;;3.50;99.90;;;;;;5031429;28;20207;-80
2021/04/13 07:25:27;;;;;;;6.63;3.10;;;3.60;99.90;;;;;;5032529;28;20112;-81
2021/04/13 07:27:59;;;;;;;8.55;3.28;;;3.70;99.90;;;;;;5011884;28;20113;-81
2021/04/13 07:30:26;;;;;;;9.05;3.00;;;3.70;99.90;;;;;;5011746;28;20022;-81
2021/04/13 07:32:58;;;;;;;10.23;3.40;;;3.80;99.90;;;;;;5028093;28;20029;-81
2021/04/13 07:35:29;;;;;;;12.20;3.22;;;3.90;99.90;;;;;;5012868;28;20026;-81
2021/04/13 07:38:00;;;;;;;8.40;2.65;;;4.00;99.90;;;;;;5013056;28;20029;-81
2021/04/13 07:40:30;;;;;;;8.23;2.20;;;4.10;99.90;;;;;;5011700;28;20133;-81
2021/04/13 07:43:23;;;;;;;10.10;2.90;;;4.20;99.90;;;;;;5013123;28;20992;-81
2021/04/13 07:46:23;;;;;;;11.57;2.40;;;4.30;99.90;;;;;;5031835;28;20112;-80
2021/04/13 07:49:05;;;;;;;7.60;2.03;;;4.40;99.90;;;;;;5031976;28;20709;-81
2021/04/13 07:51:46;;;;;;;7.07;2.47;;;4.50;99.90;;;;;;5016736;28;20026;-81
2021/04/13 07:54:29;;;;;;;8.55;2.03;;;4.60;99.90;;;;;;5031971;28;20068;-81
2021/04/13 07:57:00;;;;;;;8.90;2.72;;;4.80;99.90;;;;;;5031677;28;20026;-81
2021/04/13 07:59:27;;;;;;;5.95;2.10;;;4.90;99.90;;;;;;5015264;28;20398;-80
2021/04/13 08:01:53;;;;;;;8.30;1.70;;;5.00;99.90;;;;;;5031606;28;20029;-81
2021/04/13 08:04:22;;;;;;;7.15;1.50;;;5.10;99.90;;;;;;5015232;28;20025;-81
2021/04/13 08:07:01;;;;;;;7.82;1.13;;;5.20;99.90;;;;;;5015041;28;20632;-81
2021/04/13 08:09:37;;;;;;;4.35;1.00;;;5.30;99.90;;;;;;5016388;28;20038;-81
2021/04/13 08:12:37;;;;;;;11.30;1.02;;;5.40;99.90;;;;;;5015065;28;20433;-81
2021/04/13 08:15:03;;;;;;;8.35;1.38;;;5.50;99.60;;;;;;5003931;28;20034;-81
2021/04/13 08:17:33;;;;;;;7.72;0.75;;;5.70;99.50;;;;;;5035825;28;20052;-81
2021/04/13 08:20:08;;;;;;;8.25;1.00;;;5.90;99.00;;;;;;5034756;28;20477;-81
2021/04/13 08:22:53;;;;;;;2.92;0.70;;;6.00;97.20;;;;;;5034608;28;20029;-81
2021/04/13 08:25:33;;;;;;;5.70;0.80;;;6.10;96.30;;;;;;5035861;28;20021;-81
2021/04/13 08:28:05;;;;;;;;;;;6.20;96.20;;;;;;5035122;28;20065;-81
2021/04/13 08:30:49;;;;;;;3.63;0.70;;;6.30;96.40;;;;;;5034290;28;19987;-81
2021/04/13 08:33:27;;;;;;;2.40;0.47;;;6.40;94.70;;;;;;5034349;28;20029;-81
2021/04/13 08:36:06;;;;;;;3.63;0.93;;;6.40;94.30;;;;;;5035502;28;20021;-81
2021/04/13 08:38:59;;;;;;;4.68;0.70;;;6.50;94.80;;;;;;5035582;28;20048;-81
2021/04/13 08:41:35;;;;;;;4.20;0.70;;;6.60;94.80;;;;;;5034210;28;20494;-81
2021/04/13 08:44:34;;;;;;;7.25;0.98;;;6.70;94.50;;;;;;5035053;28;20056;-81
2021/04/13 08:47:42;;;;;;;3.40;0.82;;;6.90;93.30;;;;;;5033663;28;20029;-81
2021/04/13 08:50:27;;;;;;;5.60;0.63;;;6.70;92.10;;;;;;5019517;28;20068;-81
2021/04/13 08:53:10;;;;;;;6.07;0.77;;;6.70;92.40;;;;;;5034429;28;20440;-81
2021/04/13 08:55:35;;;;;;;5.03;0.82;;;6.70;91.80;;;;;;5035187;28;20035;-81
2021/04/13 08:58:22;;;;;;;4.65;1.13;;;6.80;91.70;;;;;;5033768;28;20455;-81
2021/04/13 09:00:53;;;;;;;7.07;0.90;;;7.00;91.00;;;;;;5033460;28;20480;-81
2021/04/13 09:03:21;;;;;;;5.78;0.75;;;7.10;90.10;;;;;;5034954;28;20029;-81
2021/04/13 09:06:04;;;;;;;4.90;0.80;;;7.20;90.10;;;;;;5033605;28;20504;-81
2021/04/13 09:08:51;;;;;;;2.63;0.52;;;7.30;90.00;;;;;;5034946;28;20076;-81
2021/04/13 09:11:35;;;;;;;3.58;0.63;;;7.30;90.30;;;;;;5034777;28;20502;-81
2021/04/13 09:14:32;;;;;;;3.55;0.60;;;7.50;90.50;;;;;;5033504;28;20099;-81
2021/04/13 09:17:12;;;;;;;9.32;1.23;;;7.80;90.60;;;;;;5032247;28;20040;-81
2021/04/13 09:20:04;;;;;;;9.10;1.23;;;7.80;86.90;;;;;;5034996;28;20033;-81
2021/04/13 09:22:45;;;;;;;4.45;0.73;;;7.90;86.70;;;;;;5032487;28;20034;-81
2021/04/13 09:25:16;;;;;;;4.38;0.60;;;7.90;86.50;;;;;;5034817;28;20041;-81
2021/04/13 09:27:49;;;;;;;3.40;0.50;;;7.90;86.90;;;;;;5049929;28;20124;-81
2021/04/13 09:30:27;;;;;;;2.90;0.88;;;8.00;87.60;;;;;;5033582;28;20076;-81
2021/04/13 09:33:03;;;;;;;1.67;0.65;;;8.20;89.20;;;;;;5046026;28;20440;-81
2021/04/13 09:35:40;;;;;;;2.15;0.50;;;9.00;90.80;;;;;;5053001;28;20028;-81
2021/04/13 09:38:17;;;;;;;4.38;0.77;;;9.80;88.80;;;;;;5054322;28;20179;-81
2021/04/13 09:41:07;;;;;;;2.40;0.63;;;9.50;76.80;;;;;;5052908;28;20021;-81
2021/04/13 09:43:37;;;;;;;;;;;10.30;74.50;;;;;;5053172;28;20045;-81
2021/04/13 09:46:34;;;;;;;2.28;0.60;;;11.90;73.30;;;;;;5053023;28;19928;-82
2021/04/13 09:49:13;;;;;;;2.75;0.90;;;14.70;67.70;;;;;;5053993;28;20116;-81
2021/04/13 09:52:06;;;;;;;2.08;0.40;;;16.70;62.50;;;;;;5054162;28;20025;-81
2021/04/13 09:54:42;;;;;;;2.22;0.52;;;18.20;55.50;;;;;;5053977;28;20025;-82
2021/04/13 09:57:37;;;;;;;5.82;1.02;;;18.40;49.30;;;;;;5052742;28;20033;-82
2021/04/13 10:00:27;;;;;;;2.28;0.50;;;16.00;49.10;;;;;;5042125;28;20044;-81
2021/04/13 10:03:20;;;;;;;2.60;0.50;;;14.70;52.20;;;;;;5053826;28;20035;-81
2021/04/13 10:05:48;;;;;;;2.88;0.40;;;16.30;54.10;;;;;;5052956;28;20033;-82
2021/04/13 10:08:28;;;;;;;1.83;0.60;;;18.10;51.10;;;;;;5052310;28;20546;-82
2021/04/13 10:11:29;;;;;;;2.15;0.50;;;19.50;47.60;;;;;;5053624;28;20052;-82
2021/04/13 10:13:58;;;;;;;1.83;0.50;;;19.30;41.90;;;;;;5053585;28;20033;-82
2021/04/13 10:16:23;;;;;;;4.18;0.70;;;17.80;44.30;;;;;;5040280;28;20114;-82
2021/04/13 10:19:32;;;;;;;2.28;0.57;;;18.20;45.90;;;;;;5032147;28;20115;-82
2021/04/13 10:22:25;;;;;;;5.15;1.27;;;18.20;43.90;;;;;;5033848;28;20022;-82
2021/04/13 10:25:22;;;;;;;2.22;0.50;;;16.70;43.90;;;;;;5031985;28;20072;-82
2021/04/13 10:28:19;;;;;;;3.78;1.13;;;17.70;45.00;;;;;;5032142;28;20018;-82
2021/04/13 10:31:05;;;;;;;4.35;0.55;;;18.60;42.30;;;;;;5032348;28;20071;-82
2021/04/13 10:34:04;;;;;;;6.20;0.85;;;19.50;42.30;;;;;;5033103;28;20048;-82
2021/04/13 10:36:57;;;;;;;3.45;0.60;;;20.40;39.10;;;;;;5032221;28;20107;-83
2021/04/13 10:39:40;;;;;;;3.90;0.90;;;21.00;39.10;;;;;;5028872;28;20037;-82
2021/04/13 10:42:35;;;;;;;3.45;0.70;;;21.30;36.60;;;;;;5029174;28;20225;-83
2021/04/13 10:45:20;;;;;;;4.30;0.80;;;19.60;37.70;;;;;;5013458;28;20041;-83
2021/04/13 10:48:23;;;;;;;3.33;0.60;;;19.70;39.10;;;;;;5023954;28;20448;-83
2021/04/13 10:51:13;;;;;;;3.03;0.80;;;19.20;40.50;;;;;;5031903;28;20079;-83
2021/04/13 10:54:27;;;;;;;1.50;0.50;;;18.30;39.80;;;;;;5032079;28;20048;-83
2021/04/13 10:57:37;;;;;;;2.10;0.47;;;20.00;41.20;;;;;;5031652;28;20124;-83
2021/04/13 11:00:31;;;;;;;1.48;0.50;;;22.30;40.50;;;;;;5031391;28;20083;-83
2021/04/13 11:03:01;;;;;;;2.28;0.60;;;23.90;36.90;;;;;;5030638;28;20029;-82
2021/04/13 11:05:44;;;;;;;3.40;0.65;;;24.80;33.10;;;;;;5030876;28;20550;-82
2021/04/13 11:08:54;;;;;;;3.03;0.80;;;23.00;32.80;;;;;;5022416;28;20032;-82
2021/04/13 11:11:42;;;;;;;2.30;0.45;;;20.10;35.50;;;;;;5021121;28;20137;-82
2021/04/13 11:14:38;;;;;;;2.72;0.70;;;20.80;38.50;;;;;;5030136;28;20057;-82
2021/04/13 11:17:42;;;;;;;1.25;0.50;;;21.40;35.40;;;;;;5024283;28;20021;-82
2021/04/13 11:20:18;;;;;;;2.28;0.50;;;20.10;36.70;;;;;;5030035;28;20018;-82
2021/04/13 11:23:10;;;;;;;2.03;0.50;;;17.80;38.00;;;;;;5024092;28;20109;-82
2021/04/13 11:26:09;;;;;;;2.03;0.40;;;16.80;40.80;;;;;;5036850;28;20022;-82
2021/04/13 11:28:35;;;;;;;1.20;0.40;;;19.40;42.00;;;;;;5028760;28;20034;-82
2021/04/13 11:31:12;;;;;;;3.70;0.77;;;21.40;39.70;;;;;;5031349;28;20485;-82
2021/04/13 11:34:14;;;;;;;1.48;0.40;;;21.60;37.70;;;;;;5030887;28;20125;-82
2021/04/13 11:37:22;;;;;;;2.22;0.60;;;21.70;38.10;;;;;;5028598;28;20032;-82
2021/04/13 11:40:09;;;;;;;2.60;0.50;;;20.90;38.50;;;;;;5023216;28;20026;-82
2021/04/13 11:42:39;;;;;;;3.33;0.63;;;19.50;40.10;;;;;;5024955;28;20539;-82
2021/04/13 11:45:17;;;;;;;2.88;0.80;;;18.20;40.60;;;;;;5022304;28;20066;-81
2021/04/13 11:47:51;;;;;;;2.70;0.70;;;17.10;42.30;;;;;;5020595;28;20479;-81
2021/04/13 11:50:25;;;;;;;2.47;0.70;;;16.50;42.40;;;;;;5019740;28;20065;-82
2021/04/13 11:52:55;;;;;;;3.55;0.68;;;15.90;42.90;;;;;;5031385;28;20014;-82
2021/04/13 11:55:26;;;;;;;;;;;15.40;44.00;;;;;;5029599;28;20366;-82
2021/04/13 11:58:16;;;;;;;1.73;0.60;;;15.20;45.80;;;;;;5030812;28;19905;-81
2021/04/13 12:00:43;;;;;;;1.65;0.52;;;15.10;45.70;;;;;;5028592;28;20041;-82
2021/04/13 12:03:24;;;;;;;2.55;0.60;;;14.80;44.60;;;;;;5030712;28;20033;-82
2021/04/13 12:05:56;;;;;;;1.15;0.40;;;14.60;46.00;;;;;;5029623;28;20028;-81
2021/04/13 12:08:37;;;;;;;2.08;0.40;;;14.60;46.30;;;;;;5030544;28;20116;-82
2021/04/13 12:11:12;;;;;;;1.88;0.57;;;14.70;46.60;;;;;;5029824;28;20068;-83
2021/04/13 12:13:43;;;;;;;1.75;0.47;;;14.60;47.50;;;;;;5029412;28;20029;-83
2021/04/13 12:16:21;;;;;;;2.65;0.80;;;14.50;48.30;;;;;;5027068;28;20026;-83
2021/04/13 12:19:07;;;;;;;1.88;0.50;;;15.60;47.50;;;;;;5028992;28;20029;-83
2021/04/13 12:21:42;;;;;;;1.30;0.40;;;17.40;47.20;;;;;;5021553;28;20069;-83
2021/04/13 12:24:39;;;;;;;2.97;0.68;;;17.70;44.10;;;;;;5018348;28;20592;-83
2021/04/13 12:27:26;;;;;;;1.40;0.47;;;18.10;42.50;;;;;;5030055;28;20028;-84
2021/04/13 12:30:23;;;;;;;2.13;0.50;;;19.90;42.50;;;;;;5032337;28;20056;-84
2021/04/13 12:32:48;;;;;;;2.08;0.50;;;19.80;39.50;;;;;;5024190;28;20037;-84
2021/04/13 12:35:46;;;;;;;1.95;0.60;;;18.60;38.20;;;;;;5034233;28;20026;-83
2021/04/13 12:38:49;;;;;;;0.90;0.47;;;18.40;40.20;;;;;;5032521;28;20025;-84
2021/04/13 12:41:21;;;;;;;1.38;0.60;;;20.30;41.30;;;;;;5015731;28;20034;-84
2021/04/13 12:43:51;;;;;;;3.10;0.80;;;21.60;39.40;;;;;;5028152;28;20133;-84
2021/04/13 12:46:39;;;;;;;2.17;0.68;;;21.30;38.70;;;;;;5030970;28;20038;-84
2021/04/13 12:49:13;;;;;;;4.35;0.50;;;20.10;37.70;;;;;;5033348;28;20521;-84
2021/04/13 12:52:05;;;;;;;1.27;0.40;;;18.90;39.70;;;;;;5022948;28;20025;-84
2021/04/13 12:54:39;;;;;;;2.38;0.70;;;17.70;41.40;;;;;;5034145;28;20052;-84
2021/04/13 12:57:12;;;;;;;2.90;0.65;;;16.70;40.90;;;;;;5023433;28;20029;-84
2021/04/13 12:59:39;;;;;;;2.35;0.47;;;15.90;42.20;;;;;;5034916;28;20053;-84
2021/04/13 13:02:08;;;;;;;1.52;0.40;;;15.60;43.90;;;;;;5034968;28;20036;-83
2021/04/13 13:04:41;;;;;;;0.60;0.30;;;15.20;44.50;;;;;;5035165;28;20013;-83
2021/04/13 13:07:18;;;;;;;1.30;0.30;;;15.00;45.90;;;;;;5034893;28;20033;-84
2021/04/13 13:09:43;;;;;;;1.45;0.50;;;15.10;46.20;;;;;;5033868;28;20030;-83
2021/04/13 13:12:32;;;;;;;1.27;0.40;;;15.40;46.90;;;;;;5035140;28;20041;-83
2021/04/13 13:15:03;;;;;;;2.40;0.43;;;15.60;45.70;;;;;;5033298;28;20053;-83
2021/04/13 13:17:32;;;;;;;1.35;0.50;;;15.50;43.70;;;;;;5015074;28;20025;-83
2021/04/13 13:19:58;;;;;;;1.27;0.40;;;15.10;41.80;;;;;;5013961;28;20026;-83
2021/04/13 13:22:27;;;;;;;1.58;0.30;;;14.80;42.30;;;;;;5013640;28;20026;-84
2021/04/13 13:24:53;;;;;;;2.65;0.70;;;15.20;43.20;;;;;;5013632;28;20053;-82
2021/04/13 13:27:31;;;;;;;1.95;0.60;;;15.30;41.60;;;;;;5013617;28;20041;-85
2021/04/13 13:30:00;;;;;;;2.15;0.52;;;15.30;41.90;;;;;;5013821;28;20029;-83
2021/04/13 13:32:28;;;;;;;1.10;0.40;;;15.30;41.40;;;;;;5013717;28;20054;-83
2021/04/13 13:34:57;;;;;;;2.10;0.30;;;15.80;41.60;;;;;;5013358;28;20120;-83
2021/04/13 13:37:37;;;;;;;1.75;0.50;;;17.10;39.90;;;;;;5013316;28;20022;-82
2021/04/13 13:40:11;;;;;;;1.00;0.38;;;17.50;38.00;;;;;;5013392;28;20034;-80
2021/04/13 13:42:38;;;;;;;2.00;0.60;;;17.10;37.70;;;;;;5014615;28;20030;-81
2021/04/13 13:45:05;;;;;;;2.17;0.60;;;16.90;38.80;;;;;;5017462;28;20112;-82